Sunday, July 24, 2016, 6:14 PM EDT

KOKV, Winchester Regional

Location: Winchester, VA, United States Lat: 39.15
Local Time: 6:14 PM EDT (22:14 GMT) Lon: -78.15
Time Zone: US/Eastern Elev: 728 ft

Show me the last for .
Show Decoded

2016-07-24 17:55 METAR KOKV 242155Z AUTO 13007KT 10SM SCT065 34/20 A2996 RMK AO2 =
2016-07-24 17:35 METAR KOKV 242135Z AUTO 12009KT 10SM BKN065 BKN075 34/19 A2995 RMK AO2 =
2016-07-24 17:15 METAR KOKV 242115Z AUTO 13009KT 10SM BKN065 BKN075 35/19 A2996 RMK AO2 =
2016-07-24 16:55 METAR KOKV 242055Z AUTO 15008KT 10SM SCT065 35/18 A2996 RMK AO2 =
2016-07-24 16:35 METAR KOKV 242035Z AUTO 14005KT 10SM CLR 35/18 A2997 RMK AO2 =
2016-07-24 16:15 METAR KOKV 242015Z AUTO 17006KT 10SM SCT070 35/18 A2997 RMK AO2 =
2016-07-24 15:55 METAR KOKV 241955Z AUTO 18006G09KT 10SM BKN070 35/18 A2997 RMK AO2 =
2016-07-24 15:35 METAR KOKV 241935Z AUTO 12004KT 10SM BKN070 35/18 A2998 RMK AO2 =
2016-07-24 15:15 METAR KOKV 241915Z AUTO 14006KT 10SM BKN070 36/18 A2998 RMK AO2 =
2016-07-24 14:55 METAR KOKV 241855Z AUTO 13005KT 10SM BKN070 35/17 A2999 RMK AO2 =
2016-07-24 14:35 METAR KOKV 241835Z AUTO 14006KT 10SM SCT070 35/17 A3000 RMK AO2 =
2016-07-24 14:15 METAR KOKV 241815Z AUTO 00000KT 10SM CLR 35/16 A3001 RMK AO2 =
2016-07-24 13:55 METAR KOKV 241755Z AUTO 21008KT 10SM CLR 35/17 A3001 RMK AO2 =
2016-07-24 13:35 METAR KOKV 241735Z AUTO 16007KT 10SM SCT065 35/17 A3002 RMK AO2 =
2016-07-24 13:15 METAR KOKV 241715Z AUTO 12006KT 10SM CLR 35/17 A3003 RMK AO2 =
2016-07-24 12:55 METAR KOKV 241655Z AUTO 14008KT 10SM SCT060 34/17 A3003 RMK AO2 =
2016-07-24 12:35 METAR KOKV 241635Z AUTO 00000KT 10SM SCT050 SCT060 33/17 A3003 RMK AO2 =
2016-07-24 12:15 METAR KOKV 241615Z AUTO 16004KT 10SM CLR 33/17 A3004 RMK AO2 =
2016-07-24 11:55 METAR KOKV 241555Z AUTO 00000KT 10SM CLR 32/17 A3004 RMK AO2 =
2016-07-24 11:35 METAR KOKV 241535Z AUTO 22004KT 10SM CLR 32/17 A3004 RMK AO2 =
2016-07-24 11:15 METAR KOKV 241515Z AUTO 00000KT 10SM CLR 32/17 A3003 RMK AO2 =
2016-07-24 10:55 METAR KOKV 241455Z AUTO 09004KT 10SM CLR 31/18 A3003 RMK AO2 =
2016-07-24 10:35 METAR KOKV 241435Z AUTO 17004KT 10SM CLR 31/19 A3003 RMK AO2 =
2016-07-24 10:15 METAR KOKV 241415Z AUTO 07003KT 10SM SCT050 30/19 A3003 RMK AO2 =
2016-07-24 09:55 METAR KOKV 241355Z AUTO 12003KT 10SM BKN050 29/20 A3003 RMK AO2 =
2016-07-24 09:35 METAR KOKV 241335Z AUTO 00000KT 10SM SCT050 29/21 A3003 RMK AO2 =
2016-07-24 09:15 METAR KOKV 241315Z AUTO 11003KT 10SM SCT050 28/21 A3003 RMK AO2 =
2016-07-24 08:55 METAR KOKV 241255Z AUTO 00000KT 10SM BKN050 27/21 A3003 RMK AO2 =
2016-07-24 08:35 METAR KOKV 241235Z AUTO 00000KT 10SM BKN050 27/21 A3003 RMK AO2 =
2016-07-24 08:15 METAR KOKV 241215Z AUTO 00000KT 10SM OVC050 26/21 A3003 RMK AO2 =
2016-07-24 07:55 METAR KOKV 241155Z AUTO 00000KT 10SM OVC050 25/21 A3003 RMK AO2 =
2016-07-24 07:35 METAR KOKV 241135Z AUTO 00000KT 10SM BKN050 23/21 A3004 RMK AO2 =
2016-07-24 07:15 METAR KOKV 241115Z AUTO 00000KT 7SM SCT050 22/21 A3004 RMK AO2 =
2016-07-24 06:55 METAR KOKV 241055Z AUTO 00000KT 10SM SCT050 23/21 A3003 RMK AO2 =
2016-07-24 06:35 METAR KOKV 241035Z AUTO 00000KT 10SM CLR 22/20 A3003 RMK AO2 =
2016-07-24 06:15 METAR KOKV 241015Z AUTO 00000KT 10SM CLR 22/21 A3002 RMK AO2 =
2016-07-24 05:55 METAR KOKV 240955Z AUTO 00000KT 10SM CLR 22/21 A3001 RMK AO2 =
2016-07-24 05:35 METAR KOKV 240935Z AUTO 00000KT 10SM CLR 22/20 A3001 RMK AO2 =
2016-07-24 05:15 METAR KOKV 240915Z AUTO 13006KT 10SM CLR 22/20 A3000 RMK AO2 =
2016-07-24 04:55 METAR KOKV 240855Z AUTO 00000KT 10SM CLR 24/21 A3000 RMK AO2 =
2016-07-24 04:35 METAR KOKV 240835Z AUTO 00000KT 10SM CLR 23/20 A2999 RMK AO2 =
2016-07-24 04:15 METAR KOKV 240815Z AUTO 00000KT 10SM CLR 25/21 A2999 RMK AO2 =
2016-07-24 03:55 METAR KOKV 240755Z AUTO 31004KT 10SM CLR 25/20 A2999 RMK AO2 =
2016-07-24 03:35 METAR KOKV 240735Z AUTO 01003KT 10SM CLR 25/21 A2999 RMK AO2 =
2016-07-24 03:15 METAR KOKV 240715Z AUTO 32004KT 10SM CLR 25/20 A2999 RMK AO2 =
2016-07-24 02:55 METAR KOKV 240655Z AUTO 00000KT 10SM CLR 26/21 A2999 RMK AO2 =
2016-07-24 02:35 METAR KOKV 240635Z AUTO 00000KT 10SM SCT048 SCT050 BKN110 26/21 A2999 RMK AO2 =
2016-07-24 02:15 METAR KOKV 240615Z AUTO 28005KT 10SM SCT070 SCT110 26/21 A2999 RMK AO2 =
2016-07-24 01:55 METAR KOKV 240555Z AUTO 29003KT 10SM SCT060 26/21 A2999 RMK AO2 =
2016-07-24 01:35 METAR KOKV 240535Z AUTO 00000KT 10SM SCT060 26/21 A2999 RMK AO2 =
2016-07-24 01:15 METAR KOKV 240515Z AUTO 00000KT 10SM CLR 26/21 A2999 RMK AO2 =
2016-07-24 00:55 METAR KOKV 240455Z AUTO 00000KT 10SM SCT120 26/21 A2999 RMK AO2 =
2016-07-24 00:35 METAR KOKV 240435Z AUTO 00000KT 10SM SCT120 26/21 A2999 RMK AO2 =
2016-07-24 00:15 METAR KOKV 240415Z AUTO 00000KT 10SM SCT120 26/21 A2999 RMK AO2 =
2016-07-23 23:55 METAR KOKV 240355Z AUTO 00000KT 10SM CLR 26/21 A2998 RMK AO2 =
2016-07-23 23:35 METAR KOKV 240335Z AUTO 13003KT 10SM CLR 28/21 A2997 RMK AO2 =
2016-07-23 23:15 METAR KOKV 240315Z AUTO 31005KT 10SM CLR 28/21 A2997 RMK AO2 =
2016-07-23 22:55 METAR KOKV 240255Z AUTO 00000KT 10SM SCT120 28/21 A2996 RMK AO2 =
2016-07-23 22:35 METAR KOKV 240235Z AUTO 00000KT 10SM SCT120 28/21 A2996 RMK AO2 =
2016-07-23 22:15 METAR KOKV 240215Z AUTO 00000KT 10SM CLR 28/21 A2996 RMK AO2 =
2016-07-23 21:55 METAR KOKV 240155Z AUTO 00000KT 10SM CLR 29/21 A2995 RMK AO2 =
2016-07-23 21:35 METAR KOKV 240135Z AUTO 00000KT 10SM CLR 29/21 A2994 RMK AO2 =
2016-07-23 21:15 METAR KOKV 240115Z AUTO 31004KT 10SM CLR 30/21 A2994 RMK AO2 =
2016-07-23 20:55 METAR KOKV 240055Z AUTO 32005KT 10SM CLR 30/20 A2993 RMK AO2 =
2016-07-23 20:35 METAR KOKV 240035Z AUTO 34004KT 10SM CLR 31/20 A2993 RMK AO2 =
2016-07-23 20:15 METAR KOKV 240015Z AUTO 33004KT 10SM SCT110 32/20 A2993 RMK AO2 =
2016-07-23 19:55 METAR KOKV 232355Z AUTO 33004KT 10SM SCT095 SCT110 32/20 A2993 RMK AO2 =
2016-07-23 19:35 METAR KOKV 232335Z AUTO 33005KT 10SM SCT100 33/20 A2992 RMK AO2 =
2016-07-23 19:15 METAR KOKV 232315Z AUTO 29006KT 10SM CLR 33/20 A2991 RMK AO2 =
2016-07-23 18:55 METAR KOKV 232255Z AUTO 29007KT 10SM CLR 35/19 A2990 RMK AO2 =
2016-07-23 18:35 METAR KOKV 232235Z AUTO 30007KT 10SM CLR 35/20 A2990 RMK AO2 =
2016-07-23 18:15 METAR KOKV 232215Z AUTO 28009KT 10SM CLR 35/20 A2990 RMK AO2 =

Support USWX by starting your Amazon purchase here.